createdAt,value
2022-11-24T00:00:55.965Z,4.00
2022-11-24T00:03:24.118Z,4.00
2022-11-24T00:05:52.267Z,4.00
2022-11-24T00:08:20.308Z,3.90
2022-11-24T00:10:48.318Z,3.90
2022-11-24T00:13:16.364Z,3.90
2022-11-24T00:15:45.733Z,3.90
2022-11-24T00:18:13.767Z,3.90
2022-11-24T00:20:41.767Z,3.90
2022-11-24T00:23:09.801Z,3.80
2022-11-24T00:25:37.821Z,3.80
2022-11-24T00:28:06.016Z,3.90
2022-11-24T00:30:34.947Z,3.90
2022-11-24T00:33:04.394Z,3.90
2022-11-24T00:35:32.400Z,3.80
2022-11-24T00:38:00.430Z,3.80
2022-11-24T00:40:33.587Z,3.80
2022-11-24T00:43:03.768Z,3.80
2022-11-24T00:45:31.775Z,3.90
2022-11-24T00:47:59.812Z,3.90
2022-11-24T00:50:29.181Z,3.90
2022-11-24T00:52:57.220Z,3.90
2022-11-24T00:55:25.209Z,3.90
2022-11-24T00:57:53.230Z,3.90
2022-11-24T01:00:21.432Z,3.90
2022-11-24T01:02:49.584Z,3.90
2022-11-24T01:05:17.768Z,3.90
2022-11-24T01:07:47.176Z,3.90
2022-11-24T01:10:15.335Z,3.80
2022-11-24T01:12:43.344Z,3.80
2022-11-24T01:15:11.582Z,3.80
2022-11-24T01:17:39.567Z,3.90
2022-11-24T01:20:09.019Z,3.80
2022-11-24T01:22:38.394Z,3.80
2022-11-24T01:25:08.741Z,3.90
2022-11-24T01:27:36.745Z,3.90
2022-11-24T01:30:05.365Z,3.90
2022-11-24T01:32:34.307Z,3.80
2022-11-24T01:35:02.386Z,3.80
2022-11-24T01:37:30.401Z,3.80
2022-11-24T01:39:58.455Z,3.80
2022-11-24T01:42:27.816Z,3.80
2022-11-24T01:45:41.690Z,3.90
2022-11-24T01:48:14.663Z,3.80
2022-11-24T01:50:42.950Z,3.80
2022-11-24T01:53:10.988Z,3.80
2022-11-24T01:55:39.307Z,3.80
2022-11-24T01:58:10.616Z,3.80
2022-11-24T02:00:38.860Z,3.80
2022-11-24T02:03:07.572Z,3.80
2022-11-24T02:05:38.915Z,3.80
2022-11-24T02:08:07.002Z,3.80
2022-11-24T02:10:35.002Z,3.80
2022-11-24T02:13:03.034Z,3.80
2022-11-24T02:15:32.459Z,3.70
2022-11-24T02:18:00.527Z,3.70
2022-11-24T02:20:28.578Z,3.70
2022-11-24T02:22:58.790Z,3.70
2022-11-24T02:25:31.883Z,3.70
2022-11-24T02:28:01.284Z,3.70
2022-11-24T02:30:29.330Z,3.80
2022-11-24T02:32:57.339Z,3.80
2022-11-24T02:35:26.522Z,3.80
2022-11-24T02:37:54.537Z,3.70
2022-11-24T02:40:25.099Z,3.60
2022-11-24T02:42:53.729Z,3.70
2022-11-24T02:45:23.176Z,3.70
2022-11-24T02:47:51.192Z,3.70
2022-11-24T02:50:19.318Z,3.70
2022-11-24T02:52:47.336Z,3.70
2022-11-24T02:55:15.507Z,3.70
2022-11-24T02:57:43.523Z,3.70
2022-11-24T03:00:12.420Z,3.70
2022-11-24T03:02:41.852Z,3.70
2022-11-24T03:05:11.974Z,3.70
2022-11-24T03:07:40.028Z,3.60
2022-11-24T03:10:08.441Z,3.70
2022-11-24T03:12:36.457Z,3.60
2022-11-24T03:15:04.907Z,3.70
2022-11-24T03:17:32.932Z,3.70
2022-11-24T03:20:04.866Z,3.70
2022-11-24T03:22:33.284Z,3.70
2022-11-24T03:25:01.306Z,3.70
2022-11-24T03:27:29.315Z,3.70
2022-11-24T03:29:57.424Z,3.70
2022-11-24T03:32:25.572Z,3.60
2022-11-24T03:34:53.611Z,3.70
2022-11-24T03:37:22.988Z,3.60
2022-11-24T03:39:51.034Z,3.60
2022-11-24T03:42:19.046Z,3.60
2022-11-24T03:44:47.082Z,3.60
2022-11-24T03:47:15.111Z,3.60
2022-11-24T03:49:43.153Z,3.60
2022-11-24T03:52:11.164Z,3.60
2022-11-24T03:54:40.557Z,3.60
2022-11-24T03:57:08.569Z,3.60
2022-11-24T03:59:36.601Z,3.60
2022-11-24T04:02:04.697Z,3.60
2022-11-24T04:04:33.082Z,3.60
2022-11-24T04:07:01.277Z,3.60
2022-11-24T04:09:29.331Z,3.60
2022-11-24T04:12:16.133Z,3.60
2022-11-24T04:14:44.170Z,3.60
2022-11-24T04:17:12.176Z,3.60
2022-11-24T04:19:40.213Z,3.60
2022-11-24T04:22:09.051Z,3.60
2022-11-24T04:24:37.090Z,3.60
2022-11-24T04:27:06.490Z,3.60
2022-11-24T04:29:34.532Z,3.60
2022-11-24T04:32:02.557Z,3.60
2022-11-24T04:34:30.607Z,3.50
2022-11-24T04:36:58.633Z,3.50
2022-11-24T04:39:28.891Z,3.60
2022-11-24T04:41:57.036Z,3.60
2022-11-24T04:44:26.438Z,3.50
2022-11-24T04:46:54.596Z,3.50
2022-11-24T04:49:22.685Z,3.60
2022-11-24T04:51:50.697Z,3.50
2022-11-24T04:54:18.733Z,3.50
2022-11-24T04:56:46.760Z,3.50
2022-11-24T04:59:15.648Z,3.50
2022-11-24T05:01:45.262Z,3.50
2022-11-24T05:04:13.439Z,3.50
2022-11-24T05:06:41.531Z,3.50
2022-11-24T05:09:09.600Z,3.50
2022-11-24T05:11:37.622Z,3.50
2022-11-24T05:14:05.699Z,3.50
2022-11-24T05:16:33.780Z,3.50
2022-11-24T05:19:03.209Z,3.50
2022-11-24T05:21:31.245Z,3.50
2022-11-24T05:23:59.288Z,3.50
2022-11-24T05:26:27.716Z,3.40
2022-11-24T05:28:55.777Z,3.40
2022-11-24T05:31:23.900Z,3.40
2022-11-24T05:33:52.450Z,3.40
2022-11-24T05:36:39.528Z,3.40
2022-11-24T05:39:07.699Z,3.40
2022-11-24T05:41:35.725Z,3.40
2022-11-24T05:44:03.773Z,3.40
2022-11-24T05:46:31.871Z,3.40
2022-11-24T05:48:59.949Z,3.40
2022-11-24T05:51:29.406Z,3.40
2022-11-24T05:53:57.454Z,3.40
2022-11-24T05:56:25.488Z,3.40
2022-11-24T05:58:53.542Z,3.40
2022-11-24T06:01:21.571Z,3.40
2022-11-24T06:03:49.621Z,3.40
2022-11-24T06:06:17.649Z,3.40
2022-11-24T06:08:47.229Z,3.40
2022-11-24T06:11:21.090Z,3.40
2022-11-24T06:13:49.621Z,3.40
2022-11-24T06:16:17.842Z,3.40
2022-11-24T06:18:45.861Z,3.40
2022-11-24T06:21:13.896Z,3.40
2022-11-24T06:23:41.962Z,3.40
2022-11-24T06:26:11.560Z,3.40
2022-11-24T06:28:39.594Z,3.40
2022-11-24T06:31:07.892Z,3.40
2022-11-24T06:33:36.492Z,3.40
2022-11-24T06:36:05.128Z,3.40
2022-11-24T06:38:33.261Z,3.50
2022-11-24T06:41:02.167Z,3.50
2022-11-24T06:43:31.644Z,3.40
2022-11-24T06:45:59.828Z,3.40
2022-11-24T06:48:28.005Z,3.40
2022-11-24T06:50:59.867Z,3.50
2022-11-24T06:53:28.025Z,3.50
2022-11-24T06:55:58.667Z,3.40
2022-11-24T06:58:26.725Z,3.40
2022-11-24T07:00:56.221Z,3.40
2022-11-24T07:03:24.372Z,3.40
2022-11-24T07:05:57.451Z,3.40
2022-11-24T07:08:25.505Z,3.40
2022-11-24T07:10:53.571Z,3.40
2022-11-24T07:13:21.609Z,3.40
2022-11-24T07:15:49.669Z,3.40
2022-11-24T07:18:19.063Z,3.40
2022-11-24T07:20:47.121Z,3.40
2022-11-24T07:23:15.146Z,3.40
2022-11-24T07:25:43.214Z,3.40
2022-11-24T07:28:11.241Z,3.40
2022-11-24T07:30:39.284Z,3.40
2022-11-24T07:33:07.307Z,3.40
2022-11-24T07:35:36.716Z,3.40
2022-11-24T07:38:04.738Z,3.50
2022-11-24T07:40:32.789Z,3.50
2022-11-24T07:43:01.598Z,3.50
2022-11-24T07:45:31.683Z,3.50
2022-11-24T07:47:59.721Z,3.60
2022-11-24T07:50:27.783Z,3.50
2022-11-24T07:52:57.160Z,3.50
2022-11-24T07:55:25.216Z,3.60
2022-11-24T07:57:53.286Z,3.50
2022-11-24T08:00:21.670Z,3.60
2022-11-24T08:02:49.697Z,3.60
2022-11-24T08:05:17.910Z,3.60
2022-11-24T08:07:45.982Z,3.60
2022-11-24T08:10:15.457Z,3.70
2022-11-24T08:12:44.033Z,3.70
2022-11-24T08:15:12.415Z,3.60
2022-11-24T08:17:40.446Z,3.70
2022-11-24T08:20:10.133Z,3.60
2022-11-24T08:22:38.171Z,3.70
2022-11-24T08:25:06.853Z,3.60
2022-11-24T08:27:36.235Z,3.60
2022-11-24T08:30:04.381Z,3.60
2022-11-24T08:32:32.419Z,3.60
2022-11-24T08:35:13.499Z,3.60
2022-11-24T08:37:42.195Z,3.70
2022-11-24T08:40:11.593Z,3.70
2022-11-24T08:42:40.984Z,3.70
2022-11-24T08:45:20.306Z,3.70
2022-11-24T08:47:53.650Z,3.80
2022-11-24T08:50:21.735Z,3.70
2022-11-24T08:52:49.768Z,3.80
2022-11-24T08:55:17.969Z,3.80
2022-11-24T08:57:47.356Z,3.80
2022-11-24T09:00:22.179Z,3.80
2022-11-24T09:02:59.293Z,3.80
2022-11-24T09:05:51.187Z,3.80
2022-11-24T09:08:15.358Z,3.80
2022-11-24T09:10:44.044Z,3.90
2022-11-24T09:13:13.425Z,3.90
2022-11-24T09:15:41.476Z,4.00
2022-11-24T09:18:09.496Z,4.00
2022-11-24T09:20:37.540Z,4.10
2022-11-24T09:23:05.605Z,4.10
2022-11-24T09:25:33.652Z,4.10
2022-11-24T09:28:01.682Z,4.20
2022-11-24T09:30:31.184Z,4.20
2022-11-24T09:32:59.241Z,4.20
2022-11-24T09:35:27.280Z,4.30
2022-11-24T09:37:55.350Z,4.30
2022-11-24T09:40:23.754Z,4.30
2022-11-24T09:42:55.886Z,4.40
2022-11-24T09:45:57.469Z,4.40
2022-11-24T09:48:22.943Z,4.40
2022-11-24T09:50:51.003Z,4.30
2022-11-24T09:53:23.236Z,4.40
2022-11-24T09:55:51.612Z,4.40
2022-11-24T09:58:25.766Z,4.40
2022-11-24T10:00:55.173Z,4.40
2022-11-24T10:03:26.090Z,4.50
2022-11-24T10:05:54.134Z,4.50
2022-11-24T10:08:34.740Z,4.60
2022-11-24T10:11:03.085Z,4.60
2022-11-24T10:13:41.210Z,4.70
2022-11-24T10:16:12.468Z,4.60
2022-11-24T10:18:47.650Z,4.70
2022-11-24T10:21:25.765Z,4.80
2022-11-24T10:24:05.170Z,4.80
2022-11-24T10:26:36.116Z,4.80
2022-11-24T10:29:11.556Z,4.80
2022-11-24T10:31:42.353Z,4.80
2022-11-24T10:34:13.623Z,4.90
2022-11-24T10:36:45.057Z,4.90
2022-11-24T10:39:14.713Z,4.90
2022-11-24T10:41:45.321Z,5.00
2022-11-24T10:44:15.558Z,4.90
2022-11-24T10:46:45.092Z,5.00
2022-11-24T10:49:17.255Z,5.00
2022-11-24T10:51:55.969Z,5.10
2022-11-24T10:54:24.746Z,5.10
2022-11-24T10:56:53.428Z,5.10
2022-11-24T10:59:36.072Z,5.10
2022-11-24T11:02:34.617Z,5.10
2022-11-24T11:05:28.875Z,5.10
2022-11-24T11:08:15.525Z,5.10
2022-11-24T11:10:44.008Z,5.20
2022-11-24T11:13:25.333Z,5.20
2022-11-24T11:15:53.617Z,5.20
2022-11-24T11:18:23.226Z,5.20
2022-11-24T11:20:52.830Z,5.20
2022-11-24T11:23:27.353Z,5.20
2022-11-24T11:26:19.956Z,5.30
2022-11-24T11:35:12.382Z,5.40
2022-11-24T11:37:40.475Z,5.40
2022-11-24T11:40:15.666Z,5.30
2022-11-24T11:43:02.043Z,5.30
2022-11-24T11:45:34.889Z,5.40
2022-11-24T11:48:11.176Z,5.40
2022-11-24T11:51:15.096Z,5.40
2022-11-24T11:53:32.222Z,5.40
2022-11-24T11:56:10.817Z,5.50
2022-11-24T11:59:34.369Z,5.60
2022-11-24T12:02:36.399Z,5.60
2022-11-24T12:05:06.450Z,5.60
2022-11-24T12:07:50.471Z,5.70
2022-11-24T12:10:24.131Z,5.60
2022-11-24T12:13:01.214Z,5.70
2022-11-24T12:15:32.586Z,5.80
2022-11-24T12:18:16.978Z,5.80
2022-11-24T12:21:00.365Z,5.80
2022-11-24T12:23:32.578Z,5.80
2022-11-24T12:26:02.488Z,5.90
2022-11-24T12:28:37.693Z,5.90
2022-11-24T12:31:06.973Z,5.90
2022-11-24T12:34:02.093Z,5.80
2022-11-24T12:36:38.204Z,5.90
2022-11-24T12:39:13.184Z,6.00
2022-11-24T12:41:49.804Z,6.00
2022-11-24T12:44:32.080Z,6.00
2022-11-24T12:47:04.112Z,6.00
2022-11-24T12:49:35.517Z,6.00
2022-11-24T12:52:06.321Z,6.00
2022-11-24T12:54:38.017Z,6.00
2022-11-24T12:57:08.163Z,6.00
2022-11-24T12:59:39.307Z,6.00
2022-11-24T13:02:15.363Z,6.00
2022-11-24T13:04:47.009Z,5.90
2022-11-24T13:07:16.175Z,5.90
2022-11-24T13:10:17.595Z,5.90
2022-11-24T13:12:56.886Z,6.00
2022-11-24T13:15:45.050Z,6.00
2022-11-24T13:18:45.608Z,6.00
2022-11-24T13:21:36.182Z,6.00
2022-11-24T13:24:05.838Z,6.10
2022-11-24T13:26:45.593Z,6.10
2022-11-24T13:29:33.242Z,6.10
2022-11-24T13:32:34.754Z,6.10
2022-11-24T13:35:13.621Z,6.20
2022-11-24T13:37:51.658Z,6.10
2022-11-24T13:40:41.012Z,6.20
2022-11-24T13:43:24.153Z,6.10
2022-11-24T13:45:54.062Z,6.20
2022-11-24T13:49:01.236Z,6.10
2022-11-24T13:51:29.292Z,6.10
2022-11-24T13:53:57.824Z,6.10
2022-11-24T13:56:30.070Z,6.10
2022-11-24T13:58:59.432Z,6.10
2022-11-24T14:01:29.507Z,6.10
2022-11-24T14:04:29.389Z,6.10
2022-11-24T14:06:49.510Z,6.10
2022-11-24T14:09:22.754Z,6.10
2022-11-24T14:12:11.597Z,6.10
2022-11-24T14:14:39.736Z,6.10
2022-11-24T14:17:14.704Z,6.10
2022-11-24T14:19:42.846Z,6.00
2022-11-24T14:22:15.523Z,6.10
2022-11-24T14:24:45.388Z,6.10
2022-11-24T14:27:15.486Z,6.00
2022-11-24T14:29:54.471Z,6.00
2022-11-24T14:32:24.018Z,6.00
2022-11-24T14:34:52.311Z,6.00
2022-11-24T14:37:20.441Z,6.00
2022-11-24T14:39:48.506Z,6.00
2022-11-24T14:42:18.877Z,6.00
2022-11-24T14:44:48.720Z,6.00
2022-11-24T14:47:21.253Z,6.10
2022-11-24T14:49:52.876Z,6.00
2022-11-24T14:52:21.740Z,6.00
2022-11-24T14:54:51.133Z,6.00
2022-11-24T14:57:26.937Z,6.00
2022-11-24T15:00:10.187Z,6.00
2022-11-24T15:02:40.633Z,6.00
2022-11-24T15:05:10.511Z,6.00
2022-11-24T15:07:39.739Z,5.90
2022-11-24T15:10:18.170Z,6.00
2022-11-24T15:12:51.070Z,5.90
2022-11-24T15:15:21.145Z,5.90
2022-11-24T15:17:50.732Z,5.90
2022-11-24T15:20:21.252Z,6.00
2022-11-24T15:22:52.387Z,5.90
2022-11-24T15:25:35.919Z,6.00
2022-11-24T15:28:03.964Z,6.00
2022-11-24T15:30:32.022Z,6.00
2022-11-24T15:33:00.351Z,6.00
2022-11-24T15:35:30.830Z,5.90
2022-11-24T15:37:58.882Z,5.90
2022-11-24T15:40:26.913Z,5.90
2022-11-24T15:42:55.608Z,5.90
2022-11-24T15:45:24.550Z,6.00
2022-11-24T15:47:52.601Z,6.00
2022-11-24T15:50:20.830Z,5.90
2022-11-24T15:52:50.246Z,5.90
2022-11-24T15:55:19.576Z,5.90
2022-11-24T15:57:47.625Z,5.90
2022-11-24T16:00:17.592Z,5.90
2022-11-24T16:02:45.620Z,5.90
2022-11-24T16:05:13.719Z,5.80
2022-11-24T16:07:41.889Z,5.70
2022-11-24T16:10:16.004Z,5.80
2022-11-24T16:12:44.033Z,5.70
2022-11-24T16:15:12.109Z,5.80
2022-11-24T16:17:40.147Z,5.70
2022-11-24T16:20:10.038Z,5.80
2022-11-24T16:22:38.072Z,5.80
2022-11-24T16:25:06.709Z,5.80
2022-11-24T16:27:36.096Z,5.80
2022-11-24T16:30:04.506Z,5.80
2022-11-24T16:32:32.541Z,5.90
2022-11-24T16:35:00.555Z,5.90
2022-11-24T16:37:28.601Z,5.90
2022-11-24T16:39:57.576Z,5.90
2022-11-24T16:42:25.635Z,5.90
2022-11-24T16:44:54.996Z,5.90
2022-11-24T16:47:23.028Z,5.80
2022-11-24T16:49:51.046Z,5.80
2022-11-24T16:52:20.140Z,5.80
2022-11-24T16:54:48.357Z,5.80
2022-11-24T16:57:16.410Z,5.80
2022-11-24T16:59:45.985Z,5.70
2022-11-24T17:02:15.564Z,5.70
2022-11-24T17:04:43.622Z,5.70
2022-11-24T17:07:11.737Z,5.70
2022-11-24T17:09:40.839Z,5.60
2022-11-24T17:12:09.069Z,5.60
2022-11-24T17:14:37.421Z,5.70
2022-11-24T17:17:05.700Z,5.50
2022-11-24T17:19:35.084Z,5.50
2022-11-24T17:22:03.126Z,5.30
2022-11-24T17:24:31.172Z,5.30
2022-11-24T17:26:59.345Z,5.30
2022-11-24T17:29:27.664Z,5.30
2022-11-24T17:31:55.733Z,5.30
2022-11-24T17:34:23.756Z,5.30
2022-11-24T17:36:53.145Z,5.40
2022-11-24T17:39:24.699Z,5.40
2022-11-24T17:41:53.014Z,5.40
2022-11-24T17:44:21.025Z,5.40
2022-11-24T17:46:49.062Z,5.30
2022-11-24T17:49:18.348Z,5.30
2022-11-24T17:51:50.476Z,5.30
2022-11-24T17:57:07.934Z,5.30
2022-11-24T17:59:35.944Z,5.30
2022-11-24T18:02:04.067Z,5.30
2022-11-24T18:04:33.968Z,5.30
2022-11-24T18:07:02.197Z,5.20
2022-11-24T18:09:31.604Z,5.10
2022-11-24T18:11:59.644Z,5.10
2022-11-24T18:14:27.701Z,5.00
2022-11-24T18:16:55.800Z,4.90
2022-11-24T18:19:23.866Z,4.90
2022-11-24T18:21:51.904Z,5.00
2022-11-24T18:24:24.040Z,5.00
2022-11-24T18:26:53.780Z,5.00
2022-11-24T18:29:22.036Z,5.00
2022-11-24T18:31:50.091Z,5.00
2022-11-24T18:34:18.170Z,4.90
2022-11-24T18:36:47.537Z,4.90
2022-11-24T18:39:18.022Z,4.90
2022-11-24T18:41:46.198Z,4.80
2022-11-24T18:44:15.572Z,4.60
2022-11-24T18:46:43.606Z,4.60
2022-11-24T18:49:11.649Z,4.50
2022-11-24T18:51:39.669Z,4.50
2022-11-24T18:54:07.734Z,4.50
2022-11-24T18:56:35.749Z,4.40
2022-11-24T18:59:03.772Z,4.30
2022-11-24T19:01:33.296Z,4.30
2022-11-24T19:04:02.243Z,4.20
2022-11-24T19:06:32.532Z,4.20
2022-11-24T19:09:01.460Z,4.10
2022-11-24T19:11:32.340Z,4.10
2022-11-24T19:14:00.480Z,4.00
2022-11-24T19:16:28.531Z,4.00
2022-11-24T19:19:00.383Z,3.90
2022-11-24T19:21:28.603Z,3.90
2022-11-24T19:24:01.307Z,3.90
2022-11-24T19:26:32.461Z,3.80
2022-11-24T19:29:00.496Z,3.80
2022-11-24T19:31:28.529Z,3.70
2022-11-24T19:33:59.974Z,3.70
2022-11-24T19:36:28.086Z,3.60
2022-11-24T19:38:56.975Z,3.60
2022-11-24T19:41:25.953Z,3.50
2022-11-24T19:43:54.813Z,3.50
2022-11-24T19:46:25.606Z,3.40
2022-11-24T19:48:56.235Z,3.40
2022-11-24T19:51:26.565Z,3.30
2022-11-24T19:53:54.742Z,3.30
2022-11-24T19:56:23.530Z,3.30
2022-11-24T19:58:51.756Z,3.40
2022-11-24T20:01:20.996Z,3.40
2022-11-24T20:03:54.317Z,3.50
2022-11-24T20:06:22.333Z,3.50
2022-11-24T20:08:51.754Z,3.40
2022-11-24T20:11:20.637Z,3.50
2022-11-24T20:13:49.811Z,3.40
2022-11-24T20:16:18.686Z,3.50
2022-11-24T20:18:47.671Z,3.50
2022-11-24T20:21:16.657Z,3.40
2022-11-24T20:23:44.925Z,3.40
2022-11-24T20:26:15.111Z,3.40
2022-11-24T20:28:43.173Z,3.30
2022-11-24T20:31:12.940Z,3.30
2022-11-24T20:33:41.033Z,3.30
2022-11-24T20:36:10.097Z,3.20
2022-11-24T20:38:38.465Z,3.20
2022-11-24T20:41:09.441Z,3.10
2022-11-24T20:43:39.235Z,3.10
2022-11-24T20:46:08.373Z,3.10
2022-11-24T20:48:36.711Z,3.10
2022-11-24T20:51:05.277Z,3.10
2022-11-24T20:53:33.304Z,3.20
2022-11-24T20:56:06.031Z,3.20
2022-11-24T20:58:34.527Z,3.20
2022-11-24T21:01:06.363Z,3.20
2022-11-24T21:03:37.233Z,3.10
2022-11-24T21:06:09.648Z,3.20
2022-11-24T21:08:38.029Z,3.20
2022-11-24T21:11:06.720Z,3.20
2022-11-24T21:13:34.924Z,3.20
2022-11-24T21:16:14.067Z,3.20
2022-11-24T21:18:42.289Z,3.20
2022-11-24T21:21:10.478Z,3.20
2022-11-24T21:23:38.518Z,3.20
2022-11-24T21:26:10.303Z,3.20
2022-11-24T21:28:43.144Z,3.20
2022-11-24T21:31:12.342Z,3.00
2022-11-24T21:33:45.940Z,3.00
2022-11-24T21:36:14.722Z,3.00
2022-11-24T21:38:42.892Z,3.10
2022-11-24T21:41:11.610Z,3.10
2022-11-24T21:43:39.700Z,3.00
2022-11-24T21:46:08.599Z,3.00
2022-11-24T21:48:37.383Z,3.20
2022-11-24T21:51:07.682Z,3.20
2022-11-24T21:53:36.708Z,3.30
2022-11-24T21:56:06.364Z,3.30
2022-11-24T21:58:34.508Z,3.30
2022-11-24T22:01:03.020Z,3.40
2022-11-24T22:03:31.121Z,3.50
2022-11-24T22:05:59.819Z,3.50
2022-11-24T22:08:30.387Z,3.50
2022-11-24T22:11:01.585Z,3.40
2022-11-24T22:13:29.678Z,3.40
2022-11-24T22:16:03.896Z,3.50
2022-11-24T22:18:33.468Z,3.50
2022-11-24T22:21:02.779Z,3.50
2022-11-24T22:23:32.593Z,3.50
2022-11-24T22:26:03.919Z,3.50
2022-11-24T22:28:33.198Z,3.60
2022-11-24T22:31:05.002Z,3.70
2022-11-24T22:33:33.121Z,3.60
2022-11-24T22:36:01.404Z,3.70
2022-11-24T22:38:29.729Z,3.80
2022-11-24T22:41:03.094Z,3.80
2022-11-24T22:43:32.798Z,3.80
2022-11-24T22:46:04.670Z,3.90
2022-11-24T22:48:32.765Z,3.80
2022-11-24T22:51:04.862Z,3.90
2022-11-24T22:53:32.902Z,4.00
2022-11-24T22:56:06.400Z,3.90
2022-11-24T22:58:34.525Z,4.00
2022-11-24T23:01:06.295Z,4.00
2022-11-24T23:03:34.765Z,4.00
2022-11-24T23:06:02.886Z,4.00
2022-11-24T23:08:31.410Z,4.00
2022-11-24T23:11:01.084Z,4.00
2022-11-24T23:13:30.468Z,4.10
2022-11-24T23:16:02.786Z,4.10
2022-11-24T23:18:30.944Z,4.00
2022-11-24T23:21:04.569Z,4.00
2022-11-24T23:23:32.643Z,4.10
2022-11-24T23:26:01.290Z,4.10
2022-11-24T23:28:30.694Z,4.20
2022-11-24T23:31:02.162Z,4.10
2022-11-24T23:33:30.194Z,4.20
2022-11-24T23:36:01.100Z,4.20
2022-11-24T23:38:30.266Z,4.30
2022-11-24T23:40:58.322Z,4.30
2022-11-24T23:43:26.372Z,4.30
2022-11-24T23:45:55.811Z,4.30
2022-11-24T23:48:23.898Z,4.40
2022-11-24T23:50:51.908Z,4.40
2022-11-24T23:53:19.954Z,4.40
2022-11-24T23:55:54.171Z,4.40
2022-11-24T23:58:22.230Z,4.40
